Stock, United Kingdom
Current Conditions -  °F | °C
As of 1:50 AM on Sunday 21 Dec 2014 (Local Time) from EGMC Reporting Station
Clear Clear  
Wind Chill: 35°   Ceiling: Unl
Heat Index: 41°   Visibility: 6mi
Dew Point: 36°   Wind: 10mph
Humidity: 81%   Direction: 240°WSW
Pressure: 30.42"   Gusts: NA
Location:  51.66°N, 0.44°E
Report Text: EGMC 210150Z 24009KT CAVOK 05/02 Q1030
Loading
Personal Weather Stations






























Interactive Weather Map New forecast layout! Learn more

10-Day Weather Forecast

Advertisements
Track Severe Weather on mobile